Time;durP1;ratioP1;P1;durP2;ratioP2;P2;SDS_P1;SDS_P2;PMS_P1;PMS_P2;Temp;Humidity;BMP_temperature;BMP_pressure;BME280_temperature;BME280_humidity;BME280_pressure;Samples;Min_cycle;Max_cycle;Signal;HPM_P1;HPM_P2
2022/04/03 00:01:15;;;;;;;7.03;3.60;;;;;;;;;;4967431;28;20067;-80
2022/04/03 00:03:41;;;;;;;9.60;3.90;;;;;;;;;;4984574;28;20038;-80
2022/04/03 00:06:07;;;;;;;8.32;3.63;;;;;;;;;;4964296;28;20237;-80
2022/04/03 00:08:33;;;;;;;14.50;3.15;;;;;;;;;;4967796;28;20038;-80
2022/04/03 00:10:59;;;;;;;10.93;3.28;;;;;;;;;;4966256;28;20031;-80
2022/04/03 00:13:26;;;;;;;11.55;4.22;;;;;;;;;;4979212;28;20030;-80
2022/04/03 00:15:52;;;;;;;8.98;4.07;;;;;;;;;;4959619;28;20422;-80
2022/04/03 00:18:18;;;;;;;9.00;3.45;;;;;;;;;;4961135;28;20038;-79
2022/04/03 00:20:46;;;;;;;7.47;3.25;;;;;;;;;;4978269;28;20169;-80
2022/04/03 00:23:12;;;;;;;11.77;3.42;;;;;;;;;;4966209;28;20121;-80
2022/04/03 00:25:38;;;;;;;8.85;3.50;;;;;;;;;;4964000;28;20179;-79
2022/04/03 00:28:05;;;;;;;8.40;3.45;;;;;;;;;;4979815;28;20092;-81
2022/04/03 00:30:31;;;;;;;5.00;3.65;;;;;;;;;;4963455;28;20045;-80
2022/04/03 00:32:57;;;;;;;6.63;3.20;;;;;;;;;;4968482;28;20080;-80
2022/04/03 00:35:23;;;;;;;12.95;4.07;;;;;;;;;;4974386;28;20434;-80
2022/04/03 00:37:49;;;;;;;6.32;3.38;;;;;;;;;;4967133;28;20447;-81
2022/04/03 00:40:16;;;;;;;12.73;3.80;;;;;;;;;;4978786;28;20499;-80
2022/04/03 00:42:42;;;;;;;6.35;2.70;;;;;;;;;;4955512;28;20114;-80
2022/04/03 00:45:09;;;;;;;9.75;3.15;;;;;;;;;;4955439;28;20018;-80
2022/04/03 00:47:35;;;;;;;7.05;3.13;;;;;;;;;;4963848;28;20065;-80
2022/04/03 00:50:01;;;;;;;10.05;3.25;;;;;;;;;;4946797;28;20450;-81
2022/04/03 00:52:27;;;;;;;3.97;2.33;;;;;;;;;;4978165;28;20041;-81
2022/04/03 00:54:54;;;;;;;7.88;2.92;;;;;;;;;;4978043;28;20041;-81
2022/04/03 00:57:21;;;;;;;5.38;3.38;;;;;;;;;;4962386;28;20368;-81
2022/04/03 00:59:49;;;;;;;5.70;2.88;;;;;;;;;;4965814;28;20042;-81
2022/04/03 01:02:15;;;;;;;4.68;2.90;;;;;;;;;;4984024;28;20034;-81
2022/04/03 01:04:42;;;;;;;5.68;2.47;;;;;;;;;;4968310;28;20394;-81
2022/04/03 01:07:08;;;;;;;4.90;2.65;;;;;;;;;;4978027;28;20445;-81
2022/04/03 01:09:34;;;;;;;5.88;2.78;;;;;;;;;;4962759;28;20508;-80
2022/04/03 01:12:00;;;;;;;5.70;3.00;;;;;;;;;;4979262;28;20483;-81
2022/04/03 01:14:43;;;;;;;10.27;2.58;;;;;;;;;;4960009;28;20716;-80
2022/04/03 01:17:12;;;;;;;4.93;2.30;;;;;;;;;;4975924;28;20133;-81
2022/04/03 01:19:38;;;;;;;5.15;2.15;;;;;;;;;;4971358;28;20073;-81
2022/04/03 01:22:04;;;;;;;11.10;2.35;;;;;;;;;;4978406;28;20109;-81
2022/04/03 01:24:31;;;;;;;4.25;2.20;;;;;;;;;;4979727;28;20042;-82
2022/04/03 01:26:57;;;;;;;4.47;2.35;;;;;;;;;;4979754;28;20061;-81
2022/04/03 01:29:24;;;;;;;7.00;3.13;;;;;;;;;;4963204;28;20506;-80
2022/04/03 01:31:50;;;;;;;10.30;3.03;;;;;;;;;;4966642;28;20080;-81
2022/04/03 01:34:17;;;;;;;4.93;2.58;;;;;;;;;;4962144;28;20062;-81
2022/04/03 01:36:44;;;;;;;4.32;2.45;;;;;;;;;;4980359;28;20038;-81
2022/04/03 01:39:10;;;;;;;5.70;2.58;;;;;;;;;;4961374;28;20437;-81
2022/04/03 01:41:37;;;;;;;5.40;2.28;;;;;;;;;;4978883;28;20066;-81
2022/04/03 01:44:03;;;;;;;10.30;2.45;;;;;;;;;;4978595;28;20733;-81
2022/04/03 01:46:29;;;;;;;3.15;2.13;;;;;;;;;;4979743;28;20019;-81
2022/04/03 01:48:55;;;;;;;5.32;2.70;;;;;;;;;;4977743;28;20493;-81
2022/04/03 01:51:21;;;;;;;4.38;2.55;;;;;;;;;;4969989;28;20058;-81
2022/04/03 01:53:47;;;;;;;6.15;2.40;;;;;;;;;;4962704;28;20687;-81
2022/04/03 01:56:13;;;;;;;5.75;2.65;;;;;;;;;;4964070;28;20034;-82
2022/04/03 01:58:39;;;;;;;4.30;2.22;;;;;;;;;;4973530;28;20533;-81
2022/04/03 02:01:05;;;;;;;8.23;2.53;;;;;;;;;;4962131;28;20022;-81
2022/04/03 02:03:31;;;;;;;7.38;2.28;;;;;;;;;;4977273;28;20026;-81
2022/04/03 02:05:57;;;;;;;5.88;2.70;;;;;;;;;;4964453;28;20485;-81
2022/04/03 02:08:24;;;;;;;6.32;2.15;;;;;;;;;;4962185;28;20065;-80
2022/04/03 02:10:50;;;;;;;4.43;2.33;;;;;;;;;;4981758;28;20828;-81
2022/04/03 02:13:16;;;;;;;4.30;1.90;;;;;;;;;;4963662;28;20042;-81
2022/04/03 02:15:42;;;;;;;3.72;1.70;;;;;;;;;;4963589;28;20486;-81
2022/04/03 02:18:09;;;;;;;3.97;1.90;;;;;;;;;;4962994;28;20682;-80
2022/04/03 02:20:35;;;;;;;2.33;1.70;;;;;;;;;;4979886;28;20702;-80
2022/04/03 02:23:07;;;;;;;4.18;1.77;;;;;;;;;;4963138;28;20117;-81
2022/04/03 02:25:33;;;;;;;3.25;2.03;;;;;;;;;;4967939;28;20034;-80
2022/04/03 02:27:59;;;;;;;5.13;1.83;;;;;;;;;;4962765;28;20453;-81
2022/04/03 02:30:26;;;;;;;3.33;2.03;;;;;;;;;;4978403;28;20501;-80
2022/04/03 02:32:52;;;;;;;3.50;1.92;;;;;;;;;;4972744;28;20061;-80
2022/04/03 02:35:19;;;;;;;3.35;2.05;;;;;;;;;;4977703;28;20070;-81
2022/04/03 02:37:45;;;;;;;3.67;2.03;;;;;;;;;;4981480;28;20094;-83
2022/04/03 02:40:12;;;;;;;2.63;2.10;;;;;;;;;;4984707;28;20655;-80
2022/04/03 02:42:38;;;;;;;3.35;1.80;;;;;;;;;;4965490;28;20042;-82
2022/04/03 02:45:05;;;;;;;4.35;1.85;;;;;;;;;;4965497;28;20518;-80
2022/04/03 02:47:32;;;;;;;6.30;2.10;;;;;;;;;;4971605;28;20434;-79
2022/04/03 02:49:58;;;;;;;5.38;1.60;;;;;;;;;;4985030;28;20018;-80
2022/04/03 02:52:24;;;;;;;2.42;1.60;;;;;;;;;;4968409;28;20486;-80
2022/04/03 02:54:50;;;;;;;3.38;1.67;;;;;;;;;;4986550;28;20045;-79
2022/04/03 02:57:17;;;;;;;4.28;1.73;;;;;;;;;;4966304;28;20441;-79
2022/04/03 02:59:43;;;;;;;2.63;1.13;;;;;;;;;;4965928;28;20430;-79
2022/04/03 03:02:10;;;;;;;1.63;1.02;;;;;;;;;;4984866;28;20093;-79
2022/04/03 03:04:36;;;;;;;1.05;0.82;;;;;;;;;;4966306;28;20106;-79
2022/04/03 03:07:06;;;;;;;9.93;1.02;;;;;;;;;;4967565;28;20045;-79
2022/04/03 03:09:32;;;;;;;2.75;0.65;;;;;;;;;;4959807;28;20092;-78
2022/04/03 03:11:59;;;;;;;2.38;0.80;;;;;;;;;;4986566;28;20106;-80
2022/04/03 03:14:26;;;;;;;0.45;0.45;;;;;;;;;;4980473;28;20037;-80
2022/04/03 03:16:52;;;;;;;2.20;0.80;;;;;;;;;;4980901;28;20034;-80
2022/04/03 03:19:18;;;;;;;2.97;1.25;;;;;;;;;;4986772;28;20036;-79
2022/04/03 03:21:44;;;;;;;0.73;0.52;;;;;;;;;;4963624;28;20134;-80
2022/04/03 03:24:10;;;;;;;2.42;0.75;;;;;;;;;;4963897;28;20034;-80
2022/04/03 03:26:37;;;;;;;0.88;0.52;;;;;;;;;;4964738;28;20037;-80
2022/04/03 03:29:03;;;;;;;1.23;0.75;;;;;;;;;;4969136;28;20033;-80
2022/04/03 03:31:30;;;;;;;0.50;0.50;;;;;;;;;;4984032;28;20519;-80
2022/04/03 03:33:56;;;;;;;1.75;0.88;;;;;;;;;;4965940;28;20125;-79
2022/04/03 03:36:22;;;;;;;1.25;0.73;;;;;;;;;;4978836;28;20038;-79
2022/04/03 03:38:48;;;;;;;1.52;0.70;;;;;;;;;;4961691;28;21145;-79
2022/04/03 03:41:14;;;;;;;1.95;0.80;;;;;;;;;;4963182;28;20089;-79
2022/04/03 03:43:40;;;;;;;2.30;0.85;;;;;;;;;;4950759;28;20049;-79
2022/04/03 03:46:08;;;;;;;0.95;0.60;;;;;;;;;;4962957;28;20035;-79
2022/04/03 03:48:34;;;;;;;2.72;1.02;;;;;;;;;;4981882;28;20114;-79
2022/04/03 03:51:00;;;;;;;1.45;1.05;;;;;;;;;;4981511;28;20105;-79
2022/04/03 03:53:26;;;;;;;3.13;1.55;;;;;;;;;;4982012;28;20038;-79
2022/04/03 03:55:52;;;;;;;3.15;1.10;;;;;;;;;;4979931;28;20505;-79
2022/04/03 03:58:19;;;;;;;7.05;1.50;;;;;;;;;;4981749;28;20429;-79
2022/04/03 04:00:45;;;;;;;6.82;2.35;;;;;;;;;;4966939;28;20040;-79
2022/04/03 04:03:12;;;;;;;3.33;1.38;;;;;;;;;;4981195;28;20031;-80
2022/04/03 04:05:39;;;;;;;3.75;1.38;;;;;;;;;;4982064;28;20058;-80
2022/04/03 04:08:05;;;;;;;3.30;1.58;;;;;;;;;;4983056;28;20034;-80
2022/04/03 04:10:31;;;;;;;7.45;1.75;;;;;;;;;;4983433;28;20821;-79
2022/04/03 04:12:57;;;;;;;2.90;1.33;;;;;;;;;;4979656;28;20370;-80
2022/04/03 04:15:23;;;;;;;3.15;1.80;;;;;;;;;;4981352;28;20428;-80
2022/04/03 04:17:54;;;;;;;2.58;1.30;;;;;;;;;;4965522;28;20030;-79
2022/04/03 04:20:21;;;;;;;4.13;1.40;;;;;;;;;;4979741;28;20026;-80
2022/04/03 04:22:47;;;;;;;6.22;1.40;;;;;;;;;;4963799;28;20042;-80
2022/04/03 04:25:14;;;;;;;2.67;1.17;;;;;;;;;;4960639;28;20598;-79
2022/04/03 04:27:40;;;;;;;3.35;1.23;;;;;;;;;;4961635;28;20042;-80
2022/04/03 04:30:07;;;;;;;2.28;1.55;;;;;;;;;;4964366;28;20636;-79
2022/04/03 04:32:33;;;;;;;2.33;1.40;;;;;;;;;;4983237;28;20050;-80
2022/04/03 04:34:59;;;;;;;5.78;1.60;;;;;;;;;;4979090;28;20038;-79
2022/04/03 04:37:25;;;;;;;5.15;1.73;;;;;;;;;;4982538;28;20077;-79
2022/04/03 04:39:51;;;;;;;5.35;1.60;;;;;;;;;;4963769;28;20035;-79
2022/04/03 04:42:17;;;;;;;3.50;1.75;;;;;;;;;;4966835;28;20042;-80
2022/04/03 04:44:43;;;;;;;6.75;1.95;;;;;;;;;;4961633;28;20034;-80
2022/04/03 04:47:09;;;;;;;9.75;2.13;;;;;;;;;;4969761;28;20119;-79
2022/04/03 04:49:35;;;;;;;2.30;1.40;;;;;;;;;;4972928;28;20031;-80
2022/04/03 04:52:03;;;;;;;6.82;1.98;;;;;;;;;;4963546;28;20034;-80
2022/04/03 04:54:30;;;;;;;3.60;2.10;;;;;;;;;;4984731;28;20363;-80
2022/04/03 04:56:56;;;;;;;4.50;1.55;;;;;;;;;;4966720;28;20561;-80
2022/04/03 04:59:22;;;;;;;6.78;1.55;;;;;;;;;;4966569;28;20034;-80
2022/04/03 05:01:56;;;;;;;1.55;1.20;;;;;;;;;;4965128;28;20450;-80
2022/04/03 05:04:23;;;;;;;3.25;1.85;;;;;;;;;;4963828;28;20022;-79
2022/04/03 05:06:50;;;;;;;1.95;1.33;;;;;;;;;;4961831;28;20061;-79
2022/04/03 05:09:17;;;;;;;3.60;1.58;;;;;;;;;;4978839;28;20034;-80
2022/04/03 05:11:44;;;;;;;3.63;1.88;;;;;;;;;;4961524;28;20085;-80
2022/04/03 05:14:10;;;;;;;4.63;1.70;;;;;;;;;;4965910;28;20480;-80
2022/04/03 05:16:37;;;;;;;5.38;1.88;;;;;;;;;;4966262;28;20034;-80
2022/04/03 05:19:03;;;;;;;3.28;1.45;;;;;;;;;;4982991;28;20628;-80
2022/04/03 05:21:29;;;;;;;4.38;2.08;;;;;;;;;;4960747;28;20133;-80
2022/04/03 05:23:55;;;;;;;4.15;1.88;;;;;;;;;;4964933;28;20030;-80
2022/04/03 05:26:21;;;;;;;8.30;1.70;;;;;;;;;;4959123;28;20433;-80
2022/04/03 05:28:48;;;;;;;8.57;2.38;;;;;;;;;;4981029;28;20034;-80
2022/04/03 05:31:14;;;;;;;9.80;2.25;;;;;;;;;;4979741;28;20034;-79
2022/04/03 05:33:41;;;;;;;10.68;2.17;;;;;;;;;;4965412;28;20084;-80
2022/04/03 05:36:07;;;;;;;5.10;2.15;;;;;;;;;;4971115;28;20588;-80
2022/04/03 05:38:34;;;;;;;10.10;1.85;;;;;;;;;;4958213;28;20030;-79
2022/04/03 05:41:00;;;;;;;11.02;1.60;;;;;;;;;;4966983;28;20319;-79
2022/04/03 05:43:26;;;;;;;6.95;1.38;;;;;;;;;;4966087;28;20553;-79
2022/04/03 05:45:52;;;;;;;2.92;1.73;;;;;;;;;;4973512;28;20026;-79
2022/04/03 05:48:18;;;;;;;2.70;1.73;;;;;;;;;;4976115;28;20041;-79
2022/04/03 05:50:45;;;;;;;10.82;1.85;;;;;;;;;;4959372;28;20610;-79
2022/04/03 05:53:11;;;;;;;6.43;1.90;;;;;;;;;;4957814;28;20093;-80
2022/04/03 05:55:37;;;;;;;4.22;2.28;;;;;;;;;;4982913;28;20034;-79
2022/04/03 05:58:03;;;;;;;12.93;2.38;;;;;;;;;;4960101;28;20031;-79
2022/04/03 06:00:29;;;;;;;3.15;1.98;;;;;;;;;;4965128;28;20022;-79
2022/04/03 06:02:57;;;;;;;3.85;2.15;;;;;;;;;;4980668;28;20027;-79
2022/04/03 06:05:24;;;;;;;6.95;2.88;;;;;;;;;;4964128;28;20050;-79
2022/04/03 06:07:50;;;;;;;7.88;2.75;;;;;;;;;;4981816;28;20716;-79
2022/04/03 06:10:16;;;;;;;5.93;2.55;;;;;;;;;;4961692;28;20440;-79
2022/04/03 06:12:58;;;;;;;3.60;1.90;;;;;;;;;;4980475;28;20061;-79
2022/04/03 06:15:25;;;;;;;8.20;2.35;;;;;;;;;;4964635;28;20116;-79
2022/04/03 06:17:51;;;;;;;14.25;2.50;;;;;;;;;;4981513;28;20061;-79
2022/04/03 06:20:18;;;;;;;1.90;1.70;;;;;;;;;;4962961;28;20130;-79
2022/04/03 06:22:44;;;;;;;4.35;2.17;;;;;;;;;;4972246;28;20047;-82
2022/04/03 06:25:11;;;;;;;6.57;2.08;;;;;;;;;;4977312;28;20034;-79
2022/04/03 06:27:37;;;;;;;5.35;2.03;;;;;;;;;;4963738;28;20410;-79
2022/04/03 06:30:04;;;;;;;4.22;2.38;;;;;;;;;;4976436;28;20490;-79
2022/04/03 06:32:30;;;;;;;6.28;2.10;;;;;;;;;;4965010;28;20486;-79
2022/04/03 06:34:56;;;;;;;4.20;1.90;;;;;;;;;;4975909;28;20043;-79
2022/04/03 06:37:22;;;;;;;4.20;2.38;;;;;;;;;;4959336;28;20043;-79
2022/04/03 06:39:48;;;;;;;4.15;2.35;;;;;;;;;;4961944;28;20039;-79
2022/04/03 06:42:15;;;;;;;6.82;2.00;;;;;;;;;;4965053;28;20023;-78
2022/04/03 06:44:41;;;;;;;6.50;1.80;;;;;;;;;;4971047;28;20192;-79
2022/04/03 06:47:07;;;;;;;5.32;1.73;;;;;;;;;;4974322;28;20031;-79
2022/04/03 06:49:33;;;;;;;10.55;1.95;;;;;;;;;;4960152;28;20022;-80
2022/04/03 06:52:00;;;;;;;6.72;1.65;;;;;;;;;;4971888;28;20035;-80
2022/04/03 06:54:26;;;;;;;2.35;1.38;;;;;;;;;;4976716;28;20784;-80
2022/04/03 06:56:53;;;;;;;3.58;1.52;;;;;;;;;;4962106;28;20857;-79
2022/04/03 06:59:19;;;;;;;11.73;3.40;;;;;;;;;;4968294;28;20034;-80
2022/04/03 07:01:45;;;;;;;7.10;2.55;;;;;;;;;;4966316;28;20085;-80
2022/04/03 07:04:11;;;;;;;2.92;1.63;;;;;;;;;;4962338;28;22841;-80
2022/04/03 07:06:37;;;;;;;4.97;1.88;;;;;;;;;;4978323;28;20050;-80
2022/04/03 07:09:03;;;;;;;1.35;1.00;;;;;;;;;;4959783;28;20648;-80
2022/04/03 07:11:29;;;;;;;7.82;1.55;;;;;;;;;;4964161;28;20035;-80
2022/04/03 07:13:56;;;;;;;0.98;0.60;;;;;;;;;;4961043;28;20037;-80
2022/04/03 07:16:22;;;;;;;3.38;0.85;;;;;;;;;;4965751;28;20035;-80
2022/04/03 07:18:48;;;;;;;2.70;1.02;;;;;;;;;;4963314;28;20100;-80
2022/04/03 07:21:14;;;;;;;3.22;0.85;;;;;;;;;;4975398;28;20474;-80
2022/04/03 07:23:40;;;;;;;4.07;1.00;;;;;;;;;;4979998;28;20520;-80
2022/04/03 07:26:07;;;;;;;1.48;0.70;;;;;;;;;;4965515;28;20030;-80
2022/04/03 07:28:33;;;;;;;2.85;0.90;;;;;;;;;;4966188;28;20032;-80
2022/04/03 07:30:59;;;;;;;2.92;1.33;;;;;;;;;;4967663;28;20085;-80
2022/04/03 07:33:26;;;;;;;2.25;0.93;;;;;;;;;;4968539;28;20034;-80
2022/04/03 07:35:53;;;;;;;3.45;1.20;;;;;;;;;;4984216;28;20023;-80
2022/04/03 07:38:19;;;;;;;2.58;0.57;;;;;;;;;;4981107;28;20482;-80
2022/04/03 07:40:48;;;;;;;4.07;0.85;;;;;;;;;;4968390;28;20030;-81
2022/04/03 07:43:16;;;;;;;1.23;0.60;;;;;;;;;;4968301;28;20026;-80
2022/04/03 07:45:42;;;;;;;2.00;0.88;;;;;;;;;;4963102;28;20045;-80
2022/04/03 07:48:09;;;;;;;1.48;0.75;;;;;;;;;;4984679;28;20031;-81
2022/04/03 07:50:36;;;;;;;5.20;0.60;;;;;;;;;;4966435;28;20031;-81
2022/04/03 07:53:02;;;;;;;4.93;0.55;;;;;;;;;;4982039;28;20046;-80
2022/04/03 07:55:28;;;;;;;1.30;0.68;;;;;;;;;;4983257;28;20034;-81
2022/04/03 07:57:54;;;;;;;8.30;1.38;;;;;;;;;;4982838;28;20092;-80
2022/04/03 08:00:20;;;;;;;1.90;0.73;;;;;;;;;;4986526;28;20073;-81
2022/04/03 08:02:46;;;;;;;5.82;3.67;;;;;;;;;;4981237;28;20030;-80
2022/04/03 08:05:19;;;;;;;1.67;1.00;;;;;;;;;;4974193;28;20165;-80
2022/04/03 08:07:46;;;;;;;5.43;1.00;;;;;;;;;;4965990;28;20054;-80
2022/04/03 08:10:13;;;;;;;1.42;0.55;;;;;;;;;;4966303;28;20057;-80
2022/04/03 08:12:43;;;;;;;2.35;1.23;;;;;;;;;;4981060;28;20038;-80
2022/04/03 08:15:10;;;;;;;2.67;1.00;;;;;;;;;;4981683;28;20046;-80
2022/04/03 08:17:38;;;;;;;1.63;1.27;;;;;;;;;;4982457;28;20402;-80
2022/04/03 08:20:04;;;;;;;6.57;1.02;;;;;;;;;;4981495;28;20084;-80
2022/04/03 08:22:30;;;;;;;5.15;1.00;;;;;;;;;;4978793;28;20103;-80
2022/04/03 08:24:56;;;;;;;1.75;0.85;;;;;;;;;;4965728;28;20109;-81
2022/04/03 08:27:23;;;;;;;2.00;1.10;;;;;;;;;;4966239;28;20587;-81
2022/04/03 08:29:49;;;;;;;2.05;0.68;;;;;;;;;;4980872;28;20347;-81
2022/04/03 08:32:15;;;;;;;2.38;1.20;;;;;;;;;;4982268;28;20066;-81
2022/04/03 08:34:42;;;;;;;1.42;0.73;;;;;;;;;;4962090;28;20034;-81
2022/04/03 08:37:08;;;;;;;1.85;0.82;;;;;;;;;;4962988;28;20066;-81
2022/04/03 08:39:34;;;;;;;5.78;1.35;;;;;;;;;;4980464;28;20026;-81
2022/04/03 08:42:00;;;;;;;1.10;0.75;;;;;;;;;;4967595;28;20030;-81
2022/04/03 08:44:29;;;;;;;4.32;0.73;;;;;;;;;;4963985;28;20034;-81
2022/04/03 08:46:58;;;;;;;3.30;0.75;;;;;;;;;;4965069;28;20038;-80
2022/04/03 08:49:24;;;;;;;3.83;0.98;;;;;;;;;;4961365;28;20093;-81
2022/04/03 08:51:52;;;;;;;4.63;1.00;;;;;;;;;;4960597;28;20038;-80
2022/04/03 08:54:20;;;;;;;5.43;0.88;;;;;;;;;;4976616;28;20109;-81
2022/04/03 08:56:46;;;;;;;1.70;1.30;;;;;;;;;;4981852;28;20031;-81
2022/04/03 08:59:12;;;;;;;2.85;0.90;;;;;;;;;;4982102;28;20038;-81
2022/04/03 09:01:38;;;;;;;6.13;1.05;;;;;;;;;;4965839;28;20030;-81
2022/04/03 09:04:05;;;;;;;1.42;0.73;;;;;;;;;;4986321;28;20117;-81
2022/04/03 09:06:31;;;;;;;3.17;0.88;;;;;;;;;;4964875;28;20207;-81
2022/04/03 09:08:57;;;;;;;1.92;0.70;;;;;;;;;;4961024;28;20042;-81
2022/04/03 09:11:28;;;;;;;2.88;0.60;;;;;;;;;;4977666;28;20035;-81
2022/04/03 09:13:54;;;;;;;4.30;0.85;;;;;;;;;;4978098;28;20031;-81
2022/04/03 09:16:37;;;;;;;5.60;0.77;;;;;;;;;;4975446;28;20636;-81
2022/04/03 09:19:03;;;;;;;6.40;1.10;;;;;;;;;;4979094;28;20034;-81
2022/04/03 09:21:29;;;;;;;7.97;1.63;;;;;;;;;;4972666;28;20494;-81
2022/04/03 09:24:02;;;;;;;1.70;0.90;;;;;;;;;;4967500;28;20049;-81
2022/04/03 09:26:28;;;;;;;1.35;0.68;;;;;;;;;;4962134;28;20656;-81
2022/04/03 09:29:14;;;;;;;0.60;0.40;;;;;;;;;;4979577;28;20023;-81
2022/04/03 09:31:40;;;;;;;2.00;0.70;;;;;;;;;;4963136;28;20053;-81
2022/04/03 09:34:14;;;;;;;1.42;0.60;;;;;;;;;;4979086;28;20038;-82
2022/04/03 09:36:40;;;;;;;5.13;1.10;;;;;;;;;;4968013;28;20096;-81
2022/04/03 09:39:16;;;;;;;3.58;1.25;;;;;;;;;;4977197;28;20118;-81
2022/04/03 09:41:55;;;;;;;1.00;0.90;;;;;;;;;;4975194;28;20069;-82
2022/04/03 09:44:31;;;;;;;3.95;1.10;;;;;;;;;;4971213;28;21354;-82
2022/04/03 09:47:16;;;;;;;4.90;1.08;;;;;;;;;;4981316;28;20026;-81
2022/04/03 09:49:44;;;;;;;5.93;1.00;;;;;;;;;;4958664;28;20089;-82
2022/04/03 09:52:11;;;;;;;0.98;0.70;;;;;;;;;;4965757;28;20061;-81
2022/04/03 09:54:40;;;;;;;2.85;0.80;;;;;;;;;;4961318;28;20046;-82
2022/04/03 09:57:19;;;;;;;2.05;1.00;;;;;;;;;;4978146;28;20050;-81
2022/04/03 09:59:52;;;;;;;6.13;1.77;;;;;;;;;;4958791;28;20069;-82
2022/04/03 10:02:18;;;;;;;1.33;0.85;;;;;;;;;;4972051;28;20569;-81
2022/04/03 10:04:45;;;;;;;2.55;0.43;;;;;;;;;;4970800;28;20101;-82
2022/04/03 10:07:13;;;;;;;1.10;1.00;;;;;;;;;;4974480;28;20083;-82
2022/04/03 10:09:44;;;;;;;1.02;0.60;;;;;;;;;;4959041;28;20072;-81
2022/04/03 10:12:10;;;;;;;2.70;0.77;;;;;;;;;;4972936;28;20035;-82
2022/04/03 10:14:36;;;;;;;9.43;1.98;;;;;;;;;;4973043;28;20193;-82
2022/04/03 10:17:02;;;;;;;2.13;0.77;;;;;;;;;;4962741;28;20053;-82
2022/04/03 10:19:28;;;;;;;1.80;0.75;;;;;;;;;;4965805;28;20047;-82
2022/04/03 10:21:55;;;;;;;1.85;1.30;;;;;;;;;;4963412;28;20117;-82
2022/04/03 10:24:24;;;;;;;3.20;1.08;;;;;;;;;;4966647;28;20534;-82
2022/04/03 10:26:57;;;;;;;2.90;1.30;;;;;;;;;;4978423;28;20025;-82
2022/04/03 10:29:24;;;;;;;4.43;1.60;;;;;;;;;;4963673;28;20038;-81
2022/04/03 10:31:58;;;;;;;6.72;2.20;;;;;;;;;;4968099;28;20533;-81
2022/04/03 10:34:26;;;;;;;2.78;1.33;;;;;;;;;;4980555;28;20410;-81
2022/04/03 10:36:52;;;;;;;3.67;1.30;;;;;;;;;;4978056;28;20030;-81
2022/04/03 10:39:37;;;;;;;1.75;1.00;;;;;;;;;;4968977;28;20116;-80
2022/04/03 10:42:19;;;;;;;5.85;1.25;;;;;;;;;;4981870;28;20051;-81
2022/04/03 10:45:05;;;;;;;2.15;0.80;;;;;;;;;;4977153;28;20034;-81
2022/04/03 10:47:31;;;;;;;5.47;1.40;;;;;;;;;;4978136;28;20574;-81
2022/04/03 10:50:04;;;;;;;1.60;1.35;;;;;;;;;;4977835;28;20070;-81
2022/04/03 10:52:39;;;;;;;3.05;0.77;;;;;;;;;;4975766;28;20039;-81
2022/04/03 10:55:05;;;;;;;;;;;;;;;;;;4964919;28;20508;-82
2022/04/03 10:57:31;;;;;;;4.45;0.50;;;;;;;;;;4966848;28;19912;-82
2022/04/03 11:00:26;;;;;;;2.45;0.80;;;;;;;;;;4962509;28;20030;-82
2022/04/03 11:02:52;;;;;;;2.25;0.77;;;;;;;;;;4965852;28;20045;-81
2022/04/03 11:05:22;;;;;;;1.08;0.57;;;;;;;;;;4969248;28;20037;-81
2022/04/03 11:08:00;;;;;;;1.38;0.57;;;;;;;;;;4969981;28;20069;-81
2022/04/03 11:10:57;;;;;;;2.92;0.73;;;;;;;;;;4962801;28;20433;-81
2022/04/03 11:13:24;;;;;;;2.45;0.75;;;;;;;;;;4981365;28;20461;-81
2022/04/03 11:16:09;;;;;;;1.27;0.50;;;;;;;;;;4979863;28;20213;-81
2022/04/03 11:18:41;;;;;;;1.42;0.50;;;;;;;;;;4986204;28;20590;-81
2022/04/03 11:21:11;;;;;;;2.47;0.63;;;;;;;;;;4980074;28;20030;-81
2022/04/03 11:23:37;;;;;;;2.38;1.08;;;;;;;;;;4964503;28;20074;-81
2022/04/03 11:26:04;;;;;;;6.72;1.00;;;;;;;;;;4982643;28;20478;-81
2022/04/03 11:28:32;;;;;;;1.27;0.80;;;;;;;;;;4968214;28;20482;-81
2022/04/03 11:30:59;;;;;;;7.68;2.20;;;;;;;;;;4971379;28;20035;-81
2022/04/03 11:33:26;;;;;;;7.72;2.45;;;;;;;;;;4967534;28;20057;-81
2022/04/03 11:35:53;;;;;;;3.50;2.17;;;;;;;;;;4968561;28;20030;-81
2022/04/03 11:38:20;;;;;;;8.27;1.25;;;;;;;;;;4983929;28;20026;-81
2022/04/03 11:40:49;;;;;;;2.47;1.48;;;;;;;;;;4967008;28;20516;-82
2022/04/03 11:43:19;;;;;;;5.70;1.40;;;;;;;;;;4965569;28;20124;-82
2022/04/03 11:46:04;;;;;;;1.65;1.30;;;;;;;;;;4982048;28;20153;-82
2022/04/03 11:48:34;;;;;;;5.07;1.00;;;;;;;;;;4966621;28;20026;-82
2022/04/03 11:51:11;;;;;;;2.10;1.10;;;;;;;;;;4971526;28;20077;-82
2022/04/03 11:53:39;;;;;;;6.55;1.23;;;;;;;;;;4972465;28;20031;-81
2022/04/03 11:56:10;;;;;;;2.97;1.02;;;;;;;;;;4972178;28;20034;-80
2022/04/03 11:58:40;;;;;;;2.08;0.98;;;;;;;;;;4975524;28;20034;-80
2022/04/03 12:01:07;;;;;;;0.73;0.63;;;;;;;;;;4970520;28;20037;-81
2022/04/03 12:03:34;;;;;;;1.40;0.70;;;;;;;;;;4977741;28;20367;-81
2022/04/03 12:06:29;;;;;;;3.80;1.02;;;;;;;;;;4978103;28;20023;-81
2022/04/03 12:08:55;;;;;;;2.20;1.20;;;;;;;;;;4951352;28;20046;-81
2022/04/03 12:11:25;;;;;;;3.78;1.25;;;;;;;;;;4961277;28;20053;-80
2022/04/03 12:13:52;;;;;;;6.22;1.00;;;;;;;;;;4977912;28;20659;-81
2022/04/03 12:16:20;;;;;;;2.80;1.10;;;;;;;;;;4977587;28;20033;-81
2022/04/03 12:18:50;;;;;;;4.32;0.90;;;;;;;;;;4981545;28;20034;-81
2022/04/03 12:21:17;;;;;;;2.67;0.95;;;;;;;;;;4966084;28;20045;-81
2022/04/03 12:24:06;;;;;;;6.78;0.98;;;;;;;;;;4958246;28;20183;-81
2022/04/03 12:26:33;;;;;;;5.78;1.20;;;;;;;;;;4969964;28;20513;-81
2022/04/03 12:29:00;;;;;;;2.13;0.70;;;;;;;;;;4978268;28;20152;-81
2022/04/03 12:31:30;;;;;;;6.25;1.70;;;;;;;;;;4975227;28;20836;-81
2022/04/03 12:34:13;;;;;;;4.32;0.65;;;;;;;;;;4979450;28;20813;-80
2022/04/03 12:36:46;;;;;;;3.95;1.20;;;;;;;;;;4959607;28;20049;-81
2022/04/03 12:39:31;;;;;;;1.08;0.90;;;;;;;;;;4972046;28;20545;-81
2022/04/03 12:42:08;;;;;;;3.67;0.80;;;;;;;;;;4958928;28;20035;-80
2022/04/03 12:44:51;;;;;;;4.22;0.90;;;;;;;;;;4977884;28;20037;-81
2022/04/03 12:47:19;;;;;;;3.13;0.80;;;;;;;;;;4952897;28;20053;-80
2022/04/03 12:49:45;;;;;;;1.38;0.50;;;;;;;;;;4977923;28;20469;-80
2022/04/03 12:52:12;;;;;;;6.10;1.10;;;;;;;;;;4973507;28;20536;-80
2022/04/03 12:54:41;;;;;;;8.48;2.17;;;;;;;;;;4954134;28;20572;-80
2022/04/03 13:00:24;;;;;;;15.50;3.80;;;;;;;;;;4972534;28;20145;-80
2022/04/03 13:02:54;;;;;;;14.88;5.50;;;;;;;;;;4973654;28;20129;-80
2022/04/03 13:05:20;;;;;;;27.85;8.15;;;;;;;;;;4975566;28;20071;-80
2022/04/03 13:07:55;;;;;;;5.88;2.88;;;;;;;;;;4962636;28;20058;-81
2022/04/03 13:10:21;;;;;;;2.90;0.93;;;;;;;;;;4958108;28;20031;-80
2022/04/03 13:12:48;;;;;;;2.25;0.70;;;;;;;;;;4954327;28;20097;-81
2022/04/03 13:15:15;;;;;;;2.70;1.08;;;;;;;;;;4970981;28;20030;-81
2022/04/03 13:17:41;;;;;;;0.50;0.50;;;;;;;;;;4977409;28;20034;-81
2022/04/03 13:20:07;;;;;;;1.92;0.95;;;;;;;;;;4970257;28;20062;-81
2022/04/03 13:22:33;;;;;;;1.75;0.90;;;;;;;;;;4961389;28;20044;-80
2022/04/03 13:24:59;;;;;;;2.03;0.77;;;;;;;;;;4962338;28;20030;-80
2022/04/03 13:27:25;;;;;;;1.52;0.90;;;;;;;;;;4962302;28;20049;-81
2022/04/03 13:29:51;;;;;;;2.35;0.90;;;;;;;;;;4978248;28;20426;-81
2022/04/03 13:32:20;;;;;;;2.25;0.63;;;;;;;;;;4977056;28;20048;-81
2022/04/03 13:34:47;;;;;;;1.67;1.02;;;;;;;;;;4956228;28;20630;-81
2022/04/03 13:37:14;;;;;;;1.05;0.60;;;;;;;;;;4964352;28;20026;-81
2022/04/03 13:39:40;;;;;;;2.78;0.93;;;;;;;;;;4963958;28;20128;-81
2022/04/03 13:42:08;;;;;;;1.85;0.80;;;;;;;;;;4965249;28;20034;-80
2022/04/03 13:44:35;;;;;;;2.50;0.90;;;;;;;;;;4956854;28;20425;-81
2022/04/03 13:47:01;;;;;;;5.88;1.35;;;;;;;;;;4979954;28;20041;-80
2022/04/03 13:49:27;;;;;;;1.63;0.80;;;;;;;;;;4972370;28;20394;-80
2022/04/03 13:51:53;;;;;;;4.05;0.90;;;;;;;;;;4967597;28;20744;-81
2022/04/03 13:54:19;;;;;;;4.03;1.13;;;;;;;;;;4964336;28;20072;-81
2022/04/03 13:56:45;;;;;;;1.88;0.93;;;;;;;;;;4970844;28;20086;-80
2022/04/03 13:59:11;;;;;;;4.57;0.93;;;;;;;;;;4953210;28;20039;-81
2022/04/03 14:01:38;;;;;;;1.42;0.70;;;;;;;;;;4956690;28;21872;-81
2022/04/03 14:04:04;;;;;;;2.80;0.82;;;;;;;;;;4953628;28;20034;-81
2022/04/03 14:06:30;;;;;;;0.80;0.50;;;;;;;;;;4952223;28;20035;-81
2022/04/03 14:08:56;;;;;;;0.77;0.55;;;;;;;;;;4972989;28;20413;-80
2022/04/03 14:11:23;;;;;;;0.80;0.38;;;;;;;;;;4972089;28;20775;-80
2022/04/03 14:13:49;;;;;;;1.73;0.80;;;;;;;;;;4973470;28;20026;-80
2022/04/03 14:16:15;;;;;;;4.40;0.93;;;;;;;;;;4970140;28;20662;-81
2022/04/03 14:18:41;;;;;;;1.35;0.98;;;;;;;;;;4958834;28;20157;-81
2022/04/03 14:21:08;;;;;;;7.03;1.00;;;;;;;;;;4958648;28;20483;-81
2022/04/03 14:23:36;;;;;;;4.03;1.10;;;;;;;;;;4972728;28;20030;-80
2022/04/03 14:26:06;;;;;;;4.60;1.10;;;;;;;;;;4959103;28;20092;-80
2022/04/03 14:28:32;;;;;;;3.00;0.88;;;;;;;;;;4962122;28;20299;-80
2022/04/03 14:30:58;;;;;;;1.08;0.60;;;;;;;;;;4958398;28;20038;-80
2022/04/03 14:33:24;;;;;;;5.63;1.10;;;;;;;;;;4959355;28;20660;-81
2022/04/03 14:35:51;;;;;;;2.47;1.10;;;;;;;;;;4981449;28;20750;-80
2022/04/03 14:38:17;;;;;;;2.03;0.90;;;;;;;;;;4977629;28;20243;-80
2022/04/03 14:40:43;;;;;;;1.27;0.88;;;;;;;;;;4955317;28;20041;-81
2022/04/03 14:43:09;;;;;;;3.47;1.55;;;;;;;;;;4962061;28;20707;-81
2022/04/03 14:45:37;;;;;;;3.58;0.85;;;;;;;;;;4949839;28;20427;-80
2022/04/03 14:48:04;;;;;;;2.30;0.70;;;;;;;;;;4974946;28;20026;-81
2022/04/03 14:50:30;;;;;;;4.60;1.52;;;;;;;;;;4963885;28;20041;-80